Time;durP1;ratioP1;P1;durP2;ratioP2;P2;SDS_P1;SDS_P2;PMS_P1;PMS_P2;Temp;Humidity;BMP_temperature;BMP_pressure;BME280_temperature;BME280_humidity;BME280_pressure;Samples;Min_cycle;Max_cycle;Signal;HPM_P1;HPM_P2
2021/11/25 00:01:02;;;;;;;49.97;21.52;;;77.70;2227.20;;;;;;5072185;28;20464;-84
2021/11/25 00:03:28;;;;;;;;;;;77.70;2227.20;;;;;;5073484;28;20033;-83
2021/11/25 00:05:53;;;;;;;43.17;20.40;;;77.70;2227.20;;;;;;5073204;28;19906;-81
2021/11/25 00:08:19;;;;;;;;;;;102.40;2227.20;;;;;;5073408;28;20036;-84
2021/11/25 00:10:45;;;;;;;43.20;22.02;;;102.50;2227.20;;;;;;5074269;28;19908;-83
2021/11/25 00:13:13;;;;;;;40.22;20.17;;;102.60;2227.20;;;;;;5075915;28;20450;-83
2021/11/25 00:15:39;;;;;;;39.58;20.80;;;102.70;2227.20;;;;;;5077120;28;20024;-84
2021/11/25 00:18:05;;;;;;;42.05;20.13;;;102.70;2227.20;;;;;;5075623;28;20041;-80
2021/11/25 00:20:31;;;;;;;36.70;19.83;;;102.80;2227.20;;;;;;5076976;28;20036;-82
2021/11/25 00:22:59;;;;;;;37.70;18.73;;;102.80;2227.20;;;;;;5075748;28;20021;-85
2021/11/25 00:25:26;;;;;;;34.80;18.77;;;102.90;2227.20;;;;;;5075522;28;20032;-84
2021/11/25 00:27:52;;;;;;;30.77;16.95;;;103.00;2227.20;;;;;;5075261;28;20115;-84
2021/11/25 00:30:17;;;;;;;37.35;17.50;;;103.00;2227.20;;;;;;5076640;28;20526;-84
2021/11/25 00:32:44;;;;;;;;;;;103.00;2227.20;;;;;;5075936;28;20025;-84
2021/11/25 00:35:11;;;;;;;27.77;14.73;;;103.00;2227.20;;;;;;5075377;28;20279;-84
2021/11/25 00:37:37;;;;;;;36.95;18.33;;;103.00;2227.20;;;;;;5076522;28;20319;-84
2021/11/25 00:40:07;;;;;;;36.50;17.83;;;103.00;2227.20;;;;;;5075404;28;20020;-84
2021/11/25 00:42:33;;;;;;;35.85;16.90;;;103.00;2227.20;;;;;;5075177;28;20047;-85
2021/11/25 00:44:59;;;;;;;32.20;16.50;;;103.00;2227.20;;;;;;5076216;28;20079;-84
2021/11/25 00:47:24;;;;;;;;;;;103.00;2227.20;;;;;;5075476;28;20048;-83
2021/11/25 00:49:50;;;;;;;29.45;15.70;;;103.00;2227.20;;;;;;5075102;28;19952;-84
2021/11/25 00:52:16;;;;;;;;;;;103.00;2227.20;;;;;;5076617;28;20021;-85
2021/11/25 00:54:42;;;;;;;31.00;16.35;;;103.10;2227.20;;;;;;5075336;28;19950;-83
2021/11/25 00:57:08;;;;;;;31.42;16.33;;;103.30;2227.20;;;;;;5075215;28;20071;-85
2021/11/25 00:59:33;;;;;;;;;;;128.00;2252.80;;;;;;5075451;28;20060;-84
2021/11/25 01:01:59;;;;;;;34.53;16.85;;;128.20;2252.80;;;;;;5075329;28;19987;-83
2021/11/25 01:04:25;;;;;;;;;;;128.40;2252.80;;;;;;5076868;28;20025;-85
2021/11/25 01:06:51;;;;;;;31.65;16.83;;;128.40;2252.80;;;;;;5074967;28;20317;-84
2021/11/25 01:09:17;;;;;;;34.22;16.80;;;128.40;2252.80;;;;;;5076185;28;20041;-85
2021/11/25 01:11:43;;;;;;;;;;;128.50;2252.80;;;;;;5075586;28;20035;-84
2021/11/25 01:14:10;;;;;;;33.05;17.38;;;128.70;2252.80;;;;;;5074486;28;20355;-83
2021/11/25 01:16:36;;;;;;;32.47;16.55;;;128.70;2252.80;;;;;;5075977;28;20030;-85
2021/11/25 01:19:01;;;;;;;;;;;128.60;2252.80;;;;;;5075921;28;20029;-85
2021/11/25 01:21:27;;;;;;;34.88;16.10;;;128.50;2252.80;;;;;;5074145;28;20352;-83
2021/11/25 01:23:53;;;;;;;;;;;128.50;2252.80;;;;;;5076120;28;20032;-84
2021/11/25 01:26:19;;;;;;;32.35;16.27;;;128.40;2252.80;;;;;;5076020;28;19959;-84
2021/11/25 01:28:44;;;;;;;;;;;128.50;2252.80;;;;;;5075757;28;20036;-84
2021/11/25 01:31:10;;;;;;;30.10;15.85;;;128.50;2252.80;;;;;;5074460;28;20419;-83
2021/11/25 01:33:35;;;;;;;;;;;128.60;2252.80;;;;;;5075959;28;20066;-85
2021/11/25 01:36:02;;;;;;;31.58;15.65;;;128.70;2252.80;;;;;;5074586;28;19912;-84
2021/11/25 01:38:29;;;;;;;32.42;16.33;;;128.70;2252.80;;;;;;5075444;28;20053;-82
2021/11/25 01:40:55;;;;;;;34.90;16.25;;;128.90;2252.80;;;;;;5074118;28;20162;-81
2021/11/25 01:43:22;;;;;;;;;;;153.60;2252.80;;;;;;5075931;28;20523;-84
2021/11/25 01:45:49;;;;;;;26.77;12.60;;;153.70;2252.80;;;;;;5075032;28;19950;-84
2021/11/25 01:48:16;;;;;;;28.80;16.08;;;153.60;2252.80;;;;;;5075101;28;20078;-84
2021/11/25 01:50:44;;;;;;;33.88;15.63;;;153.60;2252.80;;;;;;5074815;28;20089;-83
2021/11/25 01:53:11;;;;;;;27.95;15.73;;;128.90;2252.80;;;;;;5075069;28;20029;-85
2021/11/25 01:55:37;;;;;;;24.48;15.00;;;128.90;2252.80;;;;;;5074169;28;20107;-85
2021/11/25 01:58:02;;;;;;;;;;;128.70;2252.80;;;;;;5074324;28;20043;-84
2021/11/25 02:00:31;;;;;;;34.83;15.02;;;128.80;2252.80;;;;;;5074705;28;19914;-85
2021/11/25 02:02:58;;;;;;;26.15;14.65;;;128.70;2252.80;;;;;;5075094;28;20520;-76
2021/11/25 02:05:25;;;;;;;26.70;14.18;;;128.70;2252.80;;;;;;5074265;28;20021;-84
2021/11/25 02:07:51;;;;;;;24.88;14.15;;;128.70;2252.80;;;;;;5074808;28;20047;-85
2021/11/25 02:10:17;;;;;;;;;;;128.70;2252.80;;;;;;5074061;28;20028;-84
2021/11/25 02:12:43;;;;;;;26.90;14.52;;;128.70;2252.80;;;;;;5073569;28;19904;-85
2021/11/25 02:15:10;;;;;;;29.08;14.52;;;128.50;2252.80;;;;;;5073787;28;20030;-84
2021/11/25 02:17:37;;;;;;;27.10;14.88;;;128.40;2252.80;;;;;;5073249;28;20033;-84
2021/11/25 02:20:05;;;;;;;28.15;15.43;;;128.30;2252.80;;;;;;5074624;28;20035;-84
2021/11/25 02:22:31;;;;;;;29.90;16.08;;;128.20;2252.80;;;;;;5074381;28;20469;-84
2021/11/25 02:24:57;;;;;;;;;;;128.10;2252.80;;;;;;5074930;28;20067;-83
2021/11/25 02:27:23;;;;;;;28.05;15.15;;;128.20;2252.80;;;;;;5074298;28;19908;-84
2021/11/25 02:29:50;;;;;;;29.25;15.13;;;128.90;2252.80;;;;;;5073294;28;20086;-83
2021/11/25 02:32:30;;;;;;;28.67;15.90;;;128.20;2252.80;;;;;;5072722;28;20108;-83
2021/11/25 02:34:55;;;;;;;28.48;15.30;;;128.10;2252.80;;;;;;5073496;28;20028;-84
2021/11/25 02:37:21;;;;;;;27.23;14.68;;;128.10;2252.80;;;;;;5073613;28;20028;-84
2021/11/25 02:39:47;;;;;;;;;;;128.40;2252.80;;;;;;5074681;28;20442;-84
2021/11/25 02:42:13;;;;;;;33.30;15.30;;;128.50;2252.80;;;;;;5073450;28;19955;-84
2021/11/25 02:44:39;;;;;;;;;;;128.70;2252.80;;;;;;5073412;28;20032;-84
2021/11/25 02:47:05;;;;;;;28.85;13.90;;;128.70;2252.80;;;;;;5073037;28;19911;-83
2021/11/25 02:49:30;;;;;;;;;;;128.60;2252.80;;;;;;5074219;28;20055;-83
2021/11/25 02:51:56;;;;;;;25.67;12.38;;;128.50;2252.80;;;;;;5074168;28;19937;-84
2021/11/25 02:54:22;;;;;;;;;;;128.40;2252.80;;;;;;5073619;28;20029;-84
2021/11/25 02:56:47;;;;;;;25.33;13.25;;;128.20;2252.80;;;;;;5072861;28;19908;-84
2021/11/25 02:59:13;;;;;;;;;;;128.20;2252.80;;;;;;5074504;28;20028;-83
2021/11/25 03:01:39;;;;;;;29.27;14.02;;;128.20;2252.80;;;;;;5072444;28;19905;-84
2021/11/25 03:04:06;;;;;;;;;;;128.30;2252.80;;;;;;5074569;28;20028;-84
2021/11/25 03:06:32;;;;;;;20.80;11.20;;;128.30;2252.80;;;;;;5073648;28;19904;-82
2021/11/25 03:08:59;;;;;;;24.55;12.73;;;128.20;2252.80;;;;;;5072906;28;20046;-80
2021/11/25 03:11:27;;;;;;;29.00;15.30;;;128.10;2252.80;;;;;;5073946;28;20020;-84
2021/11/25 03:13:56;;;;;;;28.45;14.32;;;128.00;2252.80;;;;;;5073889;28;20024;-83
2021/11/25 03:16:23;;;;;;;25.67;13.35;;;103.30;2227.20;;;;;;5072770;28;20104;-83
2021/11/25 03:18:50;;;;;;;28.27;14.30;;;128.40;2252.80;;;;;;5073303;28;20028;-84
2021/11/25 03:21:17;;;;;;;28.95;15.38;;;103.30;2227.20;;;;;;5073706;28;20024;-81
2021/11/25 03:23:46;;;;;;;32.13;16.05;;;103.20;2227.20;;;;;;5072360;28;20024;-85
2021/11/25 03:26:15;;;;;;;33.03;15.68;;;103.10;2227.20;;;;;;5072579;28;20024;-85
2021/11/25 03:28:43;;;;;;;33.05;15.65;;;103.20;2227.20;;;;;;5072052;28;20404;-84
2021/11/25 03:31:15;;;;;;;34.25;16.65;;;103.10;2227.20;;;;;;5072076;28;20380;-84
2021/11/25 03:33:41;;;;;;;35.47;16.58;;;103.10;2227.20;;;;;;5073515;28;20032;-82
2021/11/25 03:36:09;;;;;;;36.35;15.82;;;103.10;2227.20;;;;;;5072237;28;20028;-84
2021/11/25 03:38:35;;;;;;;39.17;16.65;;;103.00;2227.20;;;;;;5072365;28;20059;-81
2021/11/25 03:41:01;;;;;;;;;;;103.00;2227.20;;;;;;5073596;28;20025;-84
2021/11/25 03:43:27;;;;;;;30.88;15.52;;;102.90;2227.20;;;;;;5072307;28;19905;-84
2021/11/25 03:45:53;;;;;;;;;;;102.80;2227.20;;;;;;5072410;28;20040;-84
2021/11/25 03:48:23;;;;;;;33.45;16.27;;;102.80;2227.20;;;;;;5072021;28;19920;-84
2021/11/25 03:50:52;;;;;;;30.52;16.50;;;102.80;2227.20;;;;;;5071912;28;20024;-83
2021/11/25 03:53:18;;;;;;;37.30;18.30;;;102.90;2227.20;;;;;;5072093;28;20512;-84
2021/11/25 03:55:44;;;;;;;34.25;18.35;;;102.80;2227.20;;;;;;5073371;28;20031;-81
2021/11/25 03:58:09;;;;;;;;;;;102.80;2227.20;;;;;;5072435;28;20035;-83
2021/11/25 04:00:35;;;;;;;34.88;17.75;;;102.90;2227.20;;;;;;5072212;28;20312;-84
2021/11/25 04:03:02;;;;;;;35.97;17.60;;;102.80;2227.20;;;;;;5073180;28;20103;-84
2021/11/25 04:05:29;;;;;;;36.95;17.40;;;102.80;2227.20;;;;;;5072439;28;20505;-82
2021/11/25 04:07:54;;;;;;;38.42;18.55;;;102.70;2227.20;;;;;;5072047;28;20567;-84
2021/11/25 04:10:20;;;;;;;;;;;102.80;2227.20;;;;;;5072734;28;20233;-82
2021/11/25 04:12:46;;;;;;;37.33;17.75;;;102.80;2227.20;;;;;;5072961;28;19905;-80
2021/11/25 04:15:12;;;;;;;;;;;102.70;2227.20;;;;;;5072546;28;20384;-86
2021/11/25 04:17:38;;;;;;;38.53;18.23;;;102.80;2227.20;;;;;;5072867;28;19908;-81
2021/11/25 04:20:04;;;;;;;;;;;102.70;2227.20;;;;;;5076638;28;20035;-85
2021/11/25 04:22:30;;;;;;;33.58;17.13;;;102.50;2227.20;;;;;;5078414;28;20015;-82
2021/11/25 04:24:57;;;;;;;34.40;17.58;;;102.60;2227.20;;;;;;5077587;28;20055;-84
2021/11/25 04:27:23;;;;;;;41.20;20.98;;;102.70;2227.20;;;;;;5077069;28;20088;-76
2021/11/25 04:30:01;;;;;;;;;;;102.70;2227.20;;;;;;5076456;28;20067;-85
2021/11/25 04:38:01;;;;;;;40.25;21.23;;;102.80;2227.20;;;;;;5075487;28;20035;-85
2021/11/25 04:40:27;;;;;;;35.95;18.98;;;102.70;2227.20;;;;;;5077137;28;20021;-80
2021/11/25 04:42:53;;;;;;;40.95;19.67;;;102.70;2227.20;;;;;;5078124;28;20029;-84
2021/11/25 04:45:19;;;;;;;;;;;102.80;2227.20;;;;;;5077382;28;20058;-75
2021/11/25 04:47:45;;;;;;;39.05;19.13;;;102.80;2227.20;;;;;;5073142;28;20292;-84
2021/11/25 04:50:10;;;;;;;41.05;20.80;;;102.80;2227.20;;;;;;5075545;28;20036;-85
2021/11/25 04:52:36;;;;;;;36.22;18.10;;;102.80;2227.20;;;;;;5076185;28;20395;-75
2021/11/25 04:55:02;;;;;;;;;;;102.80;2227.20;;;;;;5072856;28;20033;-83
2021/11/25 04:57:28;;;;;;;44.78;22.25;;;103.00;2227.20;;;;;;5076809;28;19904;-86
2021/11/25 04:59:53;;;;;;;;;;;102.80;2227.20;;;;;;5080172;28;20104;-84
2021/11/25 05:02:19;;;;;;;34.70;17.23;;;102.80;2227.20;;;;;;5081683;28;20271;-78
2021/11/25 05:04:45;;;;;;;;;;;102.80;2227.20;;;;;;5080788;28;20028;-84
2021/11/25 05:07:11;;;;;;;38.83;18.92;;;102.90;2227.20;;;;;;5081262;28;19926;-79
2021/11/25 05:09:36;;;;;;;;;;;102.90;2227.20;;;;;;5080363;28;20041;-78
2021/11/25 05:12:02;;;;;;;38.80;19.33;;;102.90;2227.20;;;;;;5079907;28;19912;-79
2021/11/25 05:14:28;;;;;;;;;;;102.90;2227.20;;;;;;5080792;28;20106;-87
2021/11/25 05:16:53;;;;;;;36.10;17.75;;;102.90;2227.20;;;;;;5079798;28;19905;-84
2021/11/25 05:19:19;;;;;;;;;;;102.80;2227.20;;;;;;5076820;28;20037;-83
2021/11/25 05:21:46;;;;;;;37.53;17.83;;;102.90;2227.20;;;;;;5075606;28;19919;-82
2021/11/25 05:24:12;;;;;;;40.28;18.30;;;102.80;2227.20;;;;;;5075766;28;20016;-81
2021/11/25 05:26:37;;;;;;;;;;;102.90;2227.20;;;;;;5074913;28;20038;-84
2021/11/25 05:29:03;;;;;;;29.42;16.63;;;102.80;2227.20;;;;;;5075850;28;19930;-84
2021/11/25 05:31:29;;;;;;;35.80;17.95;;;102.80;2227.20;;;;;;5074597;28;20021;-84
2021/11/25 05:33:54;;;;;;;;;;;102.80;2227.20;;;;;;5076198;28;20032;-84
2021/11/25 05:36:20;;;;;;;37.30;18.67;;;103.00;2227.20;;;;;;5074562;28;19908;-84
2021/11/25 05:38:46;;;;;;;;;;;102.90;2227.20;;;;;;5074816;28;20032;-84
2021/11/25 05:41:12;;;;;;;40.78;18.95;;;102.80;2227.20;;;;;;5075927;28;19908;-74
2021/11/25 05:43:37;;;;;;;;;;;102.90;2227.20;;;;;;5073689;28;20050;-84
2021/11/25 05:46:03;;;;;;;42.10;18.10;;;102.90;2227.20;;;;;;5078593;28;19905;-84
2021/11/25 05:48:28;;;;;;;;;;;102.80;2227.20;;;;;;5078289;28;20155;-83
2021/11/25 05:50:55;;;;;;;40.42;17.70;;;102.80;2227.20;;;;;;5078564;28;19995;-77
2021/11/25 05:53:21;;;;;;;39.15;20.80;;;102.80;2227.20;;;;;;5077444;28;20032;-83
2021/11/25 05:55:47;;;;;;;;;;;102.80;2227.20;;;;;;5077886;28;20024;-82
2021/11/25 05:58:13;;;;;;;40.55;17.90;;;102.70;2227.20;;;;;;5078907;28;19904;-83
2021/11/25 06:00:39;;;;;;;42.28;19.02;;;102.50;2227.20;;;;;;5078512;28;20043;-79
2021/11/25 06:03:05;;;;;;;;;;;102.50;2227.20;;;;;;5077380;28;20456;-84
2021/11/25 06:05:30;;;;;;;42.30;18.70;;;102.50;2227.20;;;;;;5077344;28;19904;-84
2021/11/25 06:07:59;;;;;;;;;;;102.50;2227.20;;;;;;5077555;28;20478;-75
2021/11/25 06:10:26;;;;;;;40.25;18.90;;;102.40;2227.20;;;;;;5074886;28;19959;-85
2021/11/25 06:12:53;;;;;;;36.70;17.92;;;77.70;2227.20;;;;;;5074045;28;20064;-85
2021/11/25 06:15:20;;;;;;;42.75;20.95;;;77.70;2227.20;;;;;;5074854;28;20221;-84
2021/11/25 06:17:46;;;;;;;36.15;18.63;;;77.70;2227.20;;;;;;5074260;28;20041;-79
2021/11/25 06:20:13;;;;;;;39.83;19.02;;;102.40;2227.20;;;;;;5074667;28;20028;-84
2021/11/25 06:22:47;;;;;;;40.17;18.83;;;102.50;2227.20;;;;;;5074642;28;20036;-86
2021/11/25 06:25:16;;;;;;;36.70;19.48;;;102.60;2227.20;;;;;;5073094;28;20024;-78
2021/11/25 06:27:42;;;;;;;37.15;18.55;;;102.70;2227.20;;;;;;5073936;28;20116;-79
2021/11/25 06:30:11;;;;;;;;;;;102.70;2227.20;;;;;;5074673;28;20546;-80
2021/11/25 06:32:42;;;;;;;38.63;19.08;;;102.70;2227.20;;;;;;5073183;28;19904;-82
2021/11/25 06:35:10;;;;;;;37.38;17.23;;;102.70;2227.20;;;;;;5073175;28;20076;-80
2021/11/25 06:37:38;;;;;;;37.15;18.58;;;102.80;2227.20;;;;;;5073045;28;20066;-76
2021/11/25 06:40:04;;;;;;;40.75;20.63;;;102.80;2227.20;;;;;;5073273;28;20017;-77
2021/11/25 06:42:30;;;;;;;37.95;18.77;;;102.90;2227.20;;;;;;5074126;28;20021;-81
2021/11/25 06:44:55;;;;;;;;;;;103.00;2227.20;;;;;;5073069;28;20540;-80
2021/11/25 06:47:21;;;;;;;38.00;19.85;;;103.10;2227.20;;;;;;5074020;28;20355;-83
2021/11/25 06:49:47;;;;;;;;;;;103.20;2227.20;;;;;;5073737;28;20048;-85
2021/11/25 06:52:12;;;;;;;43.25;18.92;;;103.30;2227.20;;;;;;5074859;28;20253;-85
2021/11/25 06:54:38;;;;;;;;;;;103.30;2227.20;;;;;;5073102;28;20103;-78
2021/11/25 06:57:04;;;;;;;40.85;20.30;;;128.10;2252.80;;;;;;5072278;28;20328;-79
2021/11/25 06:59:29;;;;;;;;;;;128.20;2252.80;;;;;;5072839;28;20032;-79
2021/11/25 07:01:56;;;;;;;39.33;20.02;;;128.20;2252.80;;;;;;5072223;28;19910;-83
2021/11/25 07:04:22;;;;;;;45.47;23.85;;;128.30;2252.80;;;;;;5072448;28;20166;-80
2021/11/25 07:06:48;;;;;;;;;;;128.40;2252.80;;;;;;5072302;28;20483;-77
2021/11/25 07:09:14;;;;;;;43.05;21.02;;;128.50;2252.80;;;;;;5072228;28;19918;-80
2021/11/25 07:11:39;;;;;;;;;;;128.60;2252.80;;;;;;5072995;28;20468;-80
2021/11/25 07:14:05;;;;;;;35.15;19.60;;;128.80;2252.80;;;;;;5073766;28;19904;-79
2021/11/25 07:16:30;;;;;;;;;;;153.60;2252.80;;;;;;5072594;28;20028;-80
2021/11/25 07:18:56;;;;;;;35.63;16.73;;;153.70;2252.80;;;;;;5072279;28;20382;-83
2021/11/25 07:21:22;;;;;;;;;;;153.90;2252.80;;;;;;5072661;28;20406;-83
2021/11/25 07:23:48;;;;;;;33.88;18.20;;;154.10;2252.80;;;;;;5073630;28;19915;-80
2021/11/25 07:26:13;;;;;;;33.05;18.60;;;154.30;2252.80;;;;;;5072206;28;20024;-80
2021/11/25 07:28:39;;;;;;;;;;;154.40;2252.80;;;;;;5073740;28;21178;-79
2021/11/25 07:31:05;;;;;;;43.72;19.92;;;154.50;2252.80;;;;;;5073273;28;19938;-81
2021/11/25 07:33:31;;;;;;;;;;;179.20;2252.80;;;;;;5074057;28;20020;-81
2021/11/25 07:35:57;;;;;;;36.30;19.52;;;179.20;2252.80;;;;;;5072822;28;19958;-79
2021/11/25 07:38:22;;;;;;;;;;;179.30;2252.80;;;;;;5072104;28;20043;-78
2021/11/25 07:40:52;;;;;;;39.65;19.60;;;179.70;2252.80;;;;;;5071391;28;19985;-82
2021/11/25 07:43:18;;;;;;;36.70;20.40;;;179.50;2252.80;;;;;;5073096;28;20026;-82
2021/11/25 07:45:44;;;;;;;42.92;22.60;;;179.60;2252.80;;;;;;5073217;28;20522;-80
2021/11/25 07:48:12;;;;;;;;;;;179.70;2252.80;;;;;;5072118;28;20052;-77
2021/11/25 07:50:38;;;;;;;34.95;20.35;;;179.50;2252.80;;;;;;5073422;28;19905;-84
2021/11/25 07:53:04;;;;;;;41.03;21.85;;;179.80;2252.80;;;;;;5072496;28;20028;-84
2021/11/25 07:55:30;;;;;;;;;;;179.90;2252.80;;;;;;5072937;28;20174;-83
2021/11/25 07:57:56;;;;;;;38.83;19.92;;;180.00;2252.80;;;;;;5073087;28;20007;-84
2021/11/25 08:00:25;;;;;;;43.47;19.48;;;180.00;2252.80;;;;;;5072336;28;20424;-86
2021/11/25 08:02:51;;;;;;;47.03;19.85;;;205.00;2252.80;;;;;;5072871;28;20013;-80
2021/11/25 08:05:17;;;;;;;;;;;204.80;2252.80;;;;;;5073505;28;20021;-83
2021/11/25 08:07:43;;;;;;;35.47;18.13;;;204.80;2252.80;;;;;;5071858;28;20257;-80
2021/11/25 08:10:09;;;;;;;;;;;204.90;2252.80;;;;;;5073004;28;20507;-75
2021/11/25 08:12:35;;;;;;;36.63;18.95;;;204.90;2252.80;;;;;;5071634;28;20287;-80
2021/11/25 08:15:01;;;;;;;;;;;205.00;2252.80;;;;;;5071840;28;20033;-80
2021/11/25 08:17:27;;;;;;;44.23;22.60;;;205.00;2252.80;;;;;;5072580;28;19961;-80
2021/11/25 08:19:53;;;;;;;;;;;205.10;2252.80;;;;;;5072819;28;20024;-80
2021/11/25 08:22:18;;;;;;;35.55;18.95;;;205.10;2252.80;;;;;;5072647;28;20360;-79
2021/11/25 08:24:44;;;;;;;;;;;205.20;2252.80;;;;;;5072738;28;20036;-81
2021/11/25 08:27:10;;;;;;;31.30;15.93;;;205.20;2252.80;;;;;;5071740;28;19912;-79
2021/11/25 08:29:36;;;;;;;34.45;18.70;;;205.20;2252.80;;;;;;5071916;28;20344;-84
2021/11/25 08:32:03;;;;;;;;;;;205.20;2252.80;;;;;;5074565;28;20025;-83
2021/11/25 08:34:29;;;;;;;34.38;21.35;;;205.20;2252.80;;;;;;5076253;28;19946;-82
2021/11/25 08:36:55;;;;;;;47.00;20.77;;;205.30;2252.80;;;;;;5075399;28;20107;-80
2021/11/25 08:39:21;;;;;;;;;;;205.30;2252.80;;;;;;5076871;28;20498;-81
2021/11/25 08:41:47;;;;;;;35.53;18.42;;;205.40;2252.80;;;;;;5076244;28;19911;-79
2021/11/25 08:44:13;;;;;;;;;;;205.50;2252.80;;;;;;5076542;28;20066;-80
2021/11/25 08:46:39;;;;;;;37.72;20.17;;;205.60;2252.80;;;;;;5075814;28;19912;-81
2021/11/25 08:49:04;;;;;;;;;;;205.60;2252.80;;;;;;5076623;28;20044;-78
2021/11/25 08:51:31;;;;;;;37.88;19.95;;;205.60;2252.80;;;;;;5091905;28;19947;-79
2021/11/25 08:54:00;;;;;;;53.30;24.80;;;205.60;2252.80;;;;;;5074972;28;20031;-79
2021/11/25 08:56:25;;;;;;;36.33;17.52;;;205.70;2252.80;;;;;;5074952;28;20023;-80
2021/11/25 08:58:51;;;;;;;;;;;205.70;2252.80;;;;;;5075203;28;20021;-80
2021/11/25 09:01:18;;;;;;;33.95;17.65;;;230.40;2252.80;;;;;;5075980;28;19912;-81
2021/11/25 09:03:43;;;;;;;34.20;18.73;;;230.50;2252.80;;;;;;5074969;28;20476;-79
2021/11/25 09:06:09;;;;;;;;;;;230.50;2252.80;;;;;;5075211;28;20035;-79
2021/11/25 09:08:35;;;;;;;32.30;19.08;;;230.60;2252.80;;;;;;5076187;28;19919;-83
2021/11/25 09:11:00;;;;;;;;;;;230.70;2252.80;;;;;;5075335;28;20745;-81
2021/11/25 09:13:26;;;;;;;31.10;17.45;;;230.80;2252.80;;;;;;5075923;28;19905;-85
2021/11/25 09:15:52;;;;;;;;;;;230.80;2252.80;;;;;;5075199;28;20468;-81
2021/11/25 09:18:17;;;;;;;39.33;19.45;;;231.00;2252.80;;;;;;5075560;28;19912;-82
2021/11/25 09:20:43;;;;;;;;;;;231.20;2252.80;;;;;;5075941;28;20120;-82
2021/11/25 09:23:17;;;;;;;36.75;19.70;;;231.30;2252.80;;;;;;5074585;28;19912;-80
2021/11/25 09:25:44;;;;;;;36.33;20.17;;;256.00;2252.80;;;;;;5075557;28;20116;-81
2021/11/25 09:28:19;;;;;;;36.47;18.95;;;256.10;2252.80;;;;;;5075209;28;20024;-79
2021/11/25 09:30:45;;;;;;;33.78;17.80;;;256.20;2252.80;;;;;;5074072;28;20506;-79
2021/11/25 09:33:12;;;;;;;37.55;20.65;;;256.20;2252.80;;;;;;5074877;28;20048;-79
2021/11/25 09:35:39;;;;;;;34.40;19.40;;;256.30;2252.80;;;;;;5074695;28;20127;-79
2021/11/25 09:38:06;;;;;;;36.00;21.25;;;256.40;2252.80;;;;;;5074815;28;20467;-77
2021/11/25 09:40:35;;;;;;;39.75;19.52;;;256.50;2252.80;;;;;;5073192;28;20028;-77
2021/11/25 09:43:05;;;;;;;34.10;18.92;;;256.50;2252.80;;;;;;5072761;28;20024;-78
2021/11/25 09:45:35;;;;;;;31.60;18.60;;;256.60;2252.80;;;;;;5073580;28;20040;-79
2021/11/25 09:48:07;;;;;;;26.08;15.23;;;256.60;2252.80;;;;;;5074506;28;20059;-79
2021/11/25 09:50:35;;;;;;;33.00;17.25;;;256.60;2252.80;;;;;;5075109;28;20071;-79
2021/11/25 09:53:04;;;;;;;39.63;19.08;;;256.80;2252.80;;;;;;5071635;28;20021;-79
2021/11/25 09:55:32;;;;;;;37.72;18.40;;;256.90;2252.80;;;;;;5073933;28;20108;-80
2021/11/25 09:57:58;;;;;;;30.20;16.83;;;281.60;2278.40;;;;;;5074520;28;20594;-80
2021/11/25 10:00:32;;;;;;;39.25;20.80;;;256.90;2252.80;;;;;;5074807;28;20476;-83
2021/11/25 10:02:58;;;;;;;28.85;16.15;;;281.70;2278.40;;;;;;5073398;28;20476;-79
2021/11/25 10:05:24;;;;;;;33.42;18.55;;;281.70;2278.40;;;;;;5073869;28;20055;-79
2021/11/25 10:07:51;;;;;;;28.88;17.02;;;281.90;2278.40;;;;;;5073667;28;20035;-79
2021/11/25 10:10:26;;;;;;;30.67;18.15;;;282.00;2278.40;;;;;;5072589;28;20060;-77
2021/11/25 10:13:02;;;;;;;34.80;20.15;;;282.10;2278.40;;;;;;5071173;28;20345;-76
2021/11/25 10:15:33;;;;;;;34.60;20.38;;;282.30;2278.40;;;;;;5074271;28;20074;-78
2021/11/25 10:18:04;;;;;;;34.38;18.88;;;282.50;2278.40;;;;;;5073608;28;20528;-75
2021/11/25 10:20:37;;;;;;;32.33;18.33;;;282.50;2278.40;;;;;;5073947;28;20392;-77
2021/11/25 10:23:03;;;;;;;29.65;18.13;;;282.20;2278.40;;;;;;5074285;28;20025;-78
2021/11/25 10:25:55;;;;;;;31.38;16.80;;;282.00;2278.40;;;;;;5073825;28;20020;-78
2021/11/25 10:28:28;;;;;;;30.27;18.55;;;281.90;2278.40;;;;;;5074068;28;20059;-79
2021/11/25 10:31:01;;;;;;;27.17;16.67;;;281.90;2278.40;;;;;;5074186;28;20070;-77
2021/11/25 10:33:36;;;;;;;29.55;16.27;;;281.90;2278.40;;;;;;5072646;28;20017;-77
2021/11/25 10:39:03;;;;;;;24.02;13.68;;;282.10;2278.40;;;;;;5073821;28;20025;-79
2021/11/25 10:41:30;;;;;;;25.90;14.70;;;282.20;2278.40;;;;;;5072482;28;20067;-77
2021/11/25 10:44:14;;;;;;;28.67;16.17;;;282.20;2278.40;;;;;;5073458;28;20020;-77
2021/11/25 10:46:46;;;;;;;29.45;15.45;;;282.50;2278.40;;;;;;5073812;28;20024;-78
2021/11/25 10:49:13;;;;;;;35.30;17.88;;;307.20;2304.00;;;;;;5071488;28;20395;-74
2021/11/25 10:51:42;;;;;;;28.95;15.73;;;307.30;2304.00;;;;;;5073781;28;20031;-78
2021/11/25 10:54:09;;;;;;;26.27;13.68;;;307.40;2304.00;;;;;;5071328;28;20039;-76
2021/11/25 10:56:40;;;;;;;26.77;16.45;;;307.40;2304.00;;;;;;5072087;28;20048;-77
2021/11/25 10:59:06;;;;;;;25.77;16.08;;;307.30;2304.00;;;;;;5073434;28;20016;-76
2021/11/25 11:01:48;;;;;;;25.23;14.32;;;307.30;2304.00;;;;;;5073358;28;20059;-78
2021/11/25 11:04:15;;;;;;;31.40;15.60;;;307.40;2304.00;;;;;;5071660;28;20031;-78
2021/11/25 11:06:42;;;;;;;31.70;17.27;;;307.60;2304.00;;;;;;5071474;28;20369;-84
2021/11/25 11:09:39;;;;;;;28.90;16.00;;;307.80;2304.00;;;;;;5073057;28;20032;-79
2021/11/25 11:12:48;;;;;;;31.15;14.80;;;307.80;2304.00;;;;;;5073082;28;20024;-76
2021/11/25 11:20:44;;;;;;;26.15;15.55;;;307.80;2304.00;;;;;;5072626;28;20031;-78
2021/11/25 11:23:12;;;;;;;31.65;17.40;;;308.10;2304.00;;;;;;5072397;28;20063;-80
2021/11/25 11:25:38;;;;;;;26.80;16.23;;;332.80;2329.60;;;;;;5071666;28;20020;-78
2021/11/25 11:28:06;;;;;;;31.88;18.98;;;332.90;2329.60;;;;;;5071537;28;20032;-79
2021/11/25 11:30:35;;;;;;;25.73;16.48;;;333.10;2329.60;;;;;;5072994;28;20358;-78
2021/11/25 11:33:05;;;;;;;30.42;16.60;;;333.00;2329.60;;;;;;5051602;28;20025;-78
2021/11/25 11:35:31;;;;;;;26.77;15.68;;;333.10;2329.60;;;;;;5052656;28;20021;-78
2021/11/25 11:38:00;;;;;;;28.35;16.75;;;333.20;2329.60;;;;;;5052752;28;20012;-85
2021/11/25 11:40:27;;;;;;;30.35;18.63;;;333.10;2329.60;;;;;;5051875;28;20060;-75
2021/11/25 11:42:57;;;;;;;35.05;19.75;;;333.00;2329.60;;;;;;5052746;28;20819;-79
2021/11/25 11:45:23;;;;;;;26.10;15.18;;;332.80;2329.60;;;;;;5052245;28;20125;-81
2021/11/25 11:47:53;;;;;;;31.70;17.25;;;308.10;2304.00;;;;;;5060032;28;20056;-81
2021/11/25 11:50:31;;;;;;;26.38;16.27;;;332.80;2329.60;;;;;;5070950;28;20143;-80
2021/11/25 11:53:03;;;;;;;28.55;16.80;;;332.80;2329.60;;;;;;5072406;28;20150;-78
2021/11/25 11:55:34;;;;;;;32.22;18.20;;;308.00;2304.00;;;;;;5069683;28;20036;-80
2021/11/25 11:58:19;;;;;;;24.73;15.98;;;308.00;2304.00;;;;;;5070913;28;20064;-78
2021/11/25 12:00:45;;;;;;;27.55;17.63;;;308.00;2304.00;;;;;;5072404;28;20016;-78
2021/11/25 12:03:10;;;;;;;28.50;16.08;;;307.90;2304.00;;;;;;5072555;28;20114;-81
2021/11/25 12:05:39;;;;;;;;;;;307.90;2304.00;;;;;;5075200;28;20102;-79
2021/11/25 12:08:19;;;;;;;39.35;21.77;;;307.90;2304.00;;;;;;5076477;28;20356;-77
2021/11/25 12:10:57;;;;;;;26.65;15.68;;;308.00;2304.00;;;;;;5075477;28;20040;-75
2021/11/25 12:13:25;;;;;;;32.40;16.65;;;308.10;2304.00;;;;;;5075402;28;20025;-81
2021/11/25 12:16:11;;;;;;;25.40;15.48;;;308.10;2304.00;;;;;;5075083;28;20111;-76
2021/11/25 12:18:37;;;;;;;26.80;15.05;;;308.10;2304.00;;;;;;5076258;28;20546;-77
2021/11/25 12:21:03;;;;;;;30.50;18.10;;;332.90;2329.60;;;;;;5074594;28;20029;-77
2021/11/25 12:23:37;;;;;;;33.30;16.73;;;332.90;2329.60;;;;;;5076341;28;20024;-77
2021/11/25 12:26:04;;;;;;;44.35;19.80;;;332.90;2329.60;;;;;;5076473;28;20027;-81
2021/11/25 12:28:35;;;;;;;30.52;17.65;;;332.90;2329.60;;;;;;5074354;28;20421;-78
2021/11/25 12:31:32;;;;;;;26.77;16.50;;;332.80;2329.60;;;;;;5075748;28;20066;-79
2021/11/25 12:33:55;;;;;;;29.25;16.38;;;332.80;2329.60;;;;;;5072754;28;20039;-78
2021/11/25 12:36:37;;;;;;;26.73;14.88;;;308.10;2304.00;;;;;;5075492;28;20460;-75